Time;durP1;ratioP1;P1;durP2;ratioP2;P2;SDS_P1;SDS_P2;PMS_P1;PMS_P2;Temp;Humidity;BMP_temperature;BMP_pressure;BME280_temperature;BME280_humidity;BME280_pressure;Samples;Min_cycle;Max_cycle;Signal;HPM_P1;HPM_P2
2023/11/30 00:02:24;;;;;;;7.97;3.95;;;16.20;86.20;;;;;;10553168;27;20759;-23
2023/11/30 00:07:26;;;;;;;7.73;3.43;;;16.20;85.60;;;;;;10558426;27;20056;-23
2023/11/30 00:12:29;;;;;;;6.80;3.20;;;16.20;85.40;;;;;;10565551;27;20093;-22
2023/11/30 00:17:31;;;;;;;6.60;3.75;;;16.20;85.60;;;;;;10552543;27;20073;-22
2023/11/30 00:22:32;;;;;;;5.83;3.60;;;16.20;85.50;;;;;;10562120;28;20051;-23
2023/11/30 00:27:36;;;;;;;7.60;3.07;;;16.20;85.40;;;;;;10563861;28;20074;-21
2023/11/30 00:32:37;;;;;;;7.50;3.03;;;16.20;85.30;;;;;;10568510;27;20474;-24
2023/11/30 00:37:39;;;;;;;6.23;2.67;;;16.20;85.30;;;;;;10571260;27;20466;-22
2023/11/30 00:42:43;;;;;;;6.25;3.10;;;16.20;85.20;;;;;;10567282;27;20074;-22
2023/11/30 00:47:44;;;;;;;5.07;3.00;;;16.20;85.30;;;;;;10564134;27;20036;-23
2023/11/30 00:52:46;;;;;;;5.93;3.03;;;16.20;85.10;;;;;;10570964;27;20599;-22
2023/11/30 00:57:50;;;;;;;6.30;3.10;;;16.20;85.10;;;;;;10566564;27;20074;-23
2023/11/30 01:02:51;;;;;;;4.45;2.40;;;16.20;85.10;;;;;;10572254;27;20051;-22
2023/11/30 01:07:53;;;;;;;5.93;2.87;;;16.20;85.00;;;;;;10572000;27;20082;-23
2023/11/30 01:12:56;;;;;;;5.37;3.00;;;16.20;85.00;;;;;;10567851;27;20642;-22
2023/11/30 01:17:58;;;;;;;7.97;2.67;;;16.20;84.90;;;;;;10567998;27;20694;-23
2023/11/30 01:23:00;;;;;;;4.05;2.40;;;16.20;84.70;;;;;;10570541;27;20512;-23
2023/11/30 01:28:04;;;;;;;3.42;2.03;;;16.20;84.80;;;;;;10572590;27;20631;-23
2023/11/30 01:33:06;;;;;;;3.72;2.28;;;16.20;84.80;;;;;;10560917;27;20879;-23
2023/11/30 01:38:07;;;;;;;3.17;2.10;;;16.20;84.80;;;;;;10563270;27;20180;-23
2023/11/30 01:43:11;;;;;;;3.27;1.93;;;16.20;84.50;;;;;;10561360;27;20046;-23
2023/11/30 01:48:13;;;;;;;4.32;2.10;;;16.20;84.50;;;;;;10567058;27;20943;-23
2023/11/30 01:53:15;;;;;;;4.13;1.90;;;16.10;84.50;;;;;;10571045;27;20058;-23
2023/11/30 01:58:19;;;;;;;3.38;1.98;;;16.20;84.60;;;;;;10569292;27;20043;-23
2023/11/30 02:03:21;;;;;;;2.90;1.92;;;16.20;84.40;;;;;;10552744;27;20134;-23
2023/11/30 02:08:23;;;;;;;4.70;1.95;;;16.20;84.30;;;;;;10560022;27;20150;-23
2023/11/30 02:13:26;;;;;;;3.50;1.90;;;16.20;84.20;;;;;;10560335;27;20052;-23
2023/11/30 02:18:28;;;;;;;2.53;1.52;;;16.20;84.40;;;;;;10552364;27;20841;-21
2023/11/30 02:23:31;;;;;;;2.88;1.45;;;16.10;84.10;;;;;;10555229;27;20162;-23
2023/11/30 02:28:33;;;;;;;2.35;1.60;;;16.10;84.30;;;;;;10563852;27;20043;-23
2023/11/30 02:33:35;;;;;;;2.88;1.67;;;16.10;84.10;;;;;;10561534;27;20055;-22
2023/11/30 02:38:38;;;;;;;2.20;1.60;;;16.20;84.20;;;;;;10562960;27;20093;-23
2023/11/30 02:43:40;;;;;;;5.25;2.08;;;16.20;84.10;;;;;;10565781;27;20054;-23
2023/11/30 02:48:42;;;;;;;4.30;1.87;;;16.20;84.00;;;;;;10558490;27;20082;-23
2023/11/30 02:53:46;;;;;;;2.85;1.90;;;16.10;83.90;;;;;;10559205;27;20059;-22
2023/11/30 02:58:47;;;;;;;2.10;1.40;;;16.10;83.90;;;;;;10555972;27;20551;-22
2023/11/30 03:03:49;;;;;;;3.23;1.40;;;16.10;83.90;;;;;;10568013;27;20051;-23
2023/11/30 03:08:52;;;;;;;2.17;1.27;;;16.10;83.90;;;;;;10560935;27;20043;-23
2023/11/30 03:13:54;;;;;;;1.65;1.30;;;16.10;84.00;;;;;;10563706;27;20545;-23
2023/11/30 03:18:56;;;;;;;2.43;1.37;;;16.10;83.80;;;;;;10559989;27;20172;-22
2023/11/30 03:24:00;;;;;;;2.20;1.30;;;16.10;83.60;;;;;;10554945;27;20051;-23
2023/11/30 03:29:01;;;;;;;2.67;1.60;;;16.10;83.50;;;;;;10562107;27;20099;-22
2023/11/30 03:34:04;;;;;;;2.03;1.07;;;16.10;83.60;;;;;;10561993;27;20908;-23
2023/11/30 03:39:07;;;;;;;1.73;1.17;;;16.10;83.60;;;;;;10562348;27;20043;-28
2023/11/30 03:44:09;;;;;;;2.15;1.23;;;16.10;83.50;;;;;;10560225;27;20050;-27
2023/11/30 03:49:11;;;;;;;1.25;0.98;;;16.10;83.50;;;;;;10559234;27;20158;-24
2023/11/30 03:54:14;;;;;;;2.60;1.57;;;16.10;83.40;;;;;;10564315;27;20073;-22
2023/11/30 04:15:32;;;;;;;1.52;1.30;;;15.90;83.20;;;;;;10581238;27;20119;-23
2023/11/30 04:20:34;;;;;;;1.65;1.30;;;16.00;83.30;;;;;;10559652;28;20051;-23
2023/11/30 04:25:36;;;;;;;2.60;1.48;;;16.00;83.20;;;;;;10554723;28;20048;-22
2023/11/30 04:30:39;;;;;;;1.57;1.10;;;16.00;83.10;;;;;;10550249;28;20050;-23
2023/11/30 04:35:41;;;;;;;2.40;1.30;;;16.00;82.90;;;;;;10559151;28;20736;-22
2023/11/30 04:40:43;;;;;;;1.20;1.08;;;16.00;82.90;;;;;;10554975;27;20192;-23
2023/11/30 04:45:46;;;;;;;1.97;1.13;;;16.00;82.70;;;;;;10556367;27;20060;-22
2023/11/30 04:50:48;;;;;;;1.50;0.95;;;16.00;82.60;;;;;;10557847;27;20052;-22
2023/11/30 04:55:50;;;;;;;1.80;0.97;;;16.10;82.50;;;;;;10551999;28;20087;-22
2023/11/30 05:00:53;;;;;;;1.37;1.00;;;16.10;82.80;;;;;;10552641;27;20052;-22
2023/11/30 05:05:55;;;;;;;1.40;1.10;;;16.10;82.90;;;;;;10555061;28;20146;-23
2023/11/30 05:10:56;;;;;;;1.13;0.97;;;16.00;82.70;;;;;;10555074;28;20072;-23
2023/11/30 05:16:00;;;;;;;1.37;1.17;;;16.10;83.00;;;;;;10554515;27;20193;-22
2023/11/30 05:21:02;;;;;;;1.00;0.90;;;16.10;83.00;;;;;;10559314;27;20948;-23
2023/11/30 05:26:04;;;;;;;2.03;1.10;;;16.10;83.20;;;;;;10524610;27;20521;-22
2023/11/30 05:31:07;;;;;;;1.55;1.08;;;16.10;83.40;;;;;;10528101;28;20044;-23
2023/11/30 05:36:10;;;;;;;1.20;0.90;;;16.10;83.30;;;;;;10525800;28;20656;-23
2023/11/30 05:41:12;;;;;;;;;;;16.10;83.50;;;;;;10526214;28;20046;-27
2023/11/30 05:46:15;;;;;;;1.38;0.90;;;16.10;83.40;;;;;;10526776;28;19927;-23
2023/11/30 05:51:17;;;;;;;1.10;0.90;;;16.10;83.50;;;;;;10521111;28;20127;-23
2023/11/30 05:56:19;;;;;;;1.37;1.00;;;16.10;83.60;;;;;;10526229;28;20087;-24
2023/11/30 06:01:22;;;;;;;2.30;1.20;;;16.10;83.50;;;;;;10529234;28;20113;-23
2023/11/30 06:06:24;;;;;;;2.33;1.05;;;16.10;83.40;;;;;;10519732;28;20737;-23
2023/11/30 06:11:26;;;;;;;2.13;1.20;;;16.60;84.20;;;;;;10526020;28;20873;-21
2023/11/30 06:16:29;;;;;;;1.60;0.90;;;16.70;84.20;;;;;;10521846;28;20529;-22
2023/11/30 06:21:31;;;;;;;1.40;1.05;;;16.70;84.50;;;;;;10525307;28;20043;-23
2023/11/30 06:26:33;;;;;;;0.80;0.80;;;16.60;84.20;;;;;;10522874;28;20616;-22
2023/11/30 06:31:36;;;;;;;2.63;0.80;;;16.60;84.60;;;;;;10523971;28;20118;-22
2023/11/30 06:36:38;;;;;;;2.40;1.23;;;16.70;84.50;;;;;;10522258;28;20048;-23
2023/11/30 06:41:39;;;;;;;1.83;1.27;;;16.50;84.70;;;;;;10515732;28;20134;-23
2023/11/30 06:46:43;;;;;;;3.50;0.93;;;16.80;84.20;;;;;;10519462;28;20047;-23
2023/11/30 06:51:45;;;;;;;2.15;1.00;;;16.80;84.30;;;;;;10524178;28;20120;-23
2023/11/30 06:56:47;;;;;;;3.67;1.20;;;16.80;84.40;;;;;;10515660;28;20878;-23
2023/11/30 07:01:50;;;;;;;2.10;1.00;;;16.80;84.40;;;;;;10523331;28;20050;-23
2023/11/30 07:06:52;;;;;;;9.35;1.85;;;16.80;84.60;;;;;;10523536;27;20667;-22
2023/11/30 07:11:54;;;;;;;3.40;1.53;;;16.80;85.10;;;;;;10515449;28;20184;-22
2023/11/30 07:16:57;;;;;;;3.40;1.40;;;16.80;85.50;;;;;;10518499;28;20059;-24
2023/11/30 07:21:59;;;;;;;5.82;1.70;;;16.80;86.20;;;;;;10511921;28;20047;-22
2023/11/30 07:27:01;;;;;;;3.53;1.73;;;16.90;85.40;;;;;;10518367;28;20494;-22
2023/11/30 07:32:05;;;;;;;1.95;1.13;;;16.90;85.60;;;;;;10505415;28;20105;-23
2023/11/30 07:37:07;;;;;;;5.40;2.08;;;16.20;85.40;;;;;;10509076;28;20489;-23
2023/11/30 07:42:09;;;;;;;19.97;11.17;;;15.80;87.20;;;;;;10505866;28;20485;-23
2023/11/30 07:47:12;;;;;;;32.10;18.23;;;15.60;88.40;;;;;;10508429;28;20132;-22
2023/11/30 07:52:14;;;;;;;48.95;24.95;;;15.60;88.80;;;;;;10513310;28;20565;-23
2023/11/30 07:57:16;;;;;;;64.80;33.53;;;16.00;89.20;;;;;;10510607;28;20044;-23
2023/11/30 08:02:19;;;;;;;72.15;36.95;;;16.60;87.90;;;;;;10505993;28;20481;-22
2023/11/30 08:07:21;;;;;;;73.82;40.75;;;16.80;87.80;;;;;;10508906;28;20055;-23
2023/11/30 08:12:23;;;;;;;78.32;43.45;;;16.80;87.70;;;;;;10511373;28;20163;-23
2023/11/30 08:17:26;;;;;;;74.80;42.20;;;16.80;87.90;;;;;;10509550;28;20085;-23
2023/11/30 08:22:28;;;;;;;76.15;42.47;;;16.90;87.80;;;;;;10514318;28;20056;-23
2023/11/30 08:27:30;;;;;;;77.10;43.10;;;16.90;87.90;;;;;;10511217;28;20052;-23
2023/11/30 08:32:33;;;;;;;70.17;35.83;;;16.90;87.80;;;;;;10511364;28;20048;-22
2023/11/30 08:37:35;;;;;;;82.88;39.15;;;15.30;90.70;;;;;;10510068;28;20075;-22
2023/11/30 08:42:37;;;;;;;65.27;36.43;;;16.90;90.70;;;;;;10513109;28;20048;-23
2023/11/30 08:47:42;;;;;;;64.75;35.90;;;17.20;87.70;;;;;;10498474;28;20119;-23
2023/11/30 08:52:43;;;;;;;66.18;37.05;;;17.20;87.10;;;;;;10498994;28;20052;-24
2023/11/30 08:57:45;;;;;;;69.77;36.07;;;17.10;86.80;;;;;;10509171;28;20071;-23
2023/11/30 09:02:48;;;;;;;64.37;32.73;;;17.10;86.80;;;;;;10510559;28;20115;-23
2023/11/30 09:07:50;;;;;;;62.17;34.47;;;17.20;86.80;;;;;;10511508;28;20269;-23
2023/11/30 09:12:52;;;;;;;56.28;32.58;;;17.10;86.70;;;;;;10503281;28;20135;-23
2023/11/30 09:17:58;;;;;;;53.60;29.43;;;17.20;86.70;;;;;;10515402;28;20059;-30
2023/11/30 09:22:59;;;;;;;54.42;29.73;;;17.10;86.40;;;;;;10511634;28;21062;-23
2023/11/30 09:28:02;;;;;;;53.20;28.65;;;17.20;86.50;;;;;;10515388;28;20048;-22
2023/11/30 09:33:06;;;;;;;52.65;27.27;;;17.30;86.50;;;;;;10509933;28;20079;-23
2023/11/30 09:38:09;;;;;;;53.08;27.33;;;17.20;86.10;;;;;;10510597;28;20478;-22
2023/11/30 09:43:11;;;;;;;49.20;25.23;;;17.20;86.40;;;;;;10506264;28;20079;-22
2023/11/30 09:48:15;;;;;;;45.20;24.37;;;17.20;86.10;;;;;;10508842;28;20167;-22
2023/11/30 09:53:17;;;;;;;42.30;24.25;;;17.20;85.90;;;;;;10490573;28;20089;-23
2023/11/30 09:58:18;;;;;;;41.27;22.87;;;17.20;85.90;;;;;;10514661;28;20135;-22
2023/11/30 10:03:32;;;;;;;40.53;21.70;;;17.20;85.60;;;;;;10506095;28;20052;-23
2023/11/30 10:08:33;;;;;;;37.45;20.17;;;17.20;85.60;;;;;;10505188;28;20073;-23
2023/11/30 10:13:35;;;;;;;35.37;19.20;;;17.20;85.40;;;;;;10502423;28;20304;-30
2023/11/30 10:18:39;;;;;;;36.90;20.00;;;17.20;85.20;;;;;;10509698;28;20988;-23
2023/11/30 10:23:41;;;;;;;32.17;17.92;;;17.20;85.10;;;;;;10515246;28;21232;-23
2023/11/30 10:28:43;;;;;;;27.83;16.57;;;17.30;87.00;;;;;;10509009;28;20186;-23
2023/11/30 10:33:52;;;;;;;32.43;16.77;;;17.20;88.20;;;;;;10514185;28;20074;-23
2023/11/30 10:38:58;;;;;;;29.48;16.25;;;17.20;87.80;;;;;;10507874;28;20513;-24
2023/11/30 10:44:01;;;;;;;24.58;14.57;;;17.20;87.40;;;;;;10506442;28;20073;-22
2023/11/30 10:49:06;;;;;;;26.73;14.25;;;17.30;86.90;;;;;;10506066;28;20048;-23
2023/11/30 10:54:14;;;;;;;26.13;14.40;;;17.30;86.60;;;;;;10509255;28;20059;-23
2023/11/30 10:59:16;;;;;;;25.05;13.35;;;17.30;86.20;;;;;;10505670;28;20060;-22
2023/11/30 11:04:23;;;;;;;24.83;13.43;;;17.30;86.40;;;;;;10508133;28;20216;-27
2023/11/30 11:09:25;;;;;;;26.15;13.13;;;17.30;86.80;;;;;;10505169;28;20047;-23
2023/11/30 11:14:30;;;;;;;21.13;11.87;;;17.20;86.90;;;;;;10503503;28;20051;-23
2023/11/30 11:19:34;;;;;;;24.55;11.43;;;17.30;87.50;;;;;;10508739;28;20100;-23
2023/11/30 11:24:40;;;;;;;23.52;12.68;;;17.30;87.30;;;;;;10511020;28;20048;-23
2023/11/30 11:29:42;;;;;;;24.17;11.35;;;17.30;87.30;;;;;;10505612;28;20130;-23
2023/11/30 11:34:45;;;;;;;22.13;11.27;;;17.30;86.90;;;;;;10511652;28;21212;-23
2023/11/30 11:39:48;;;;;;;19.35;9.70;;;17.40;86.70;;;;;;10504692;28;20089;-24
2023/11/30 11:44:51;;;;;;;23.77;9.55;;;17.40;86.50;;;;;;10509021;28;20507;-22
2023/11/30 11:49:54;;;;;;;15.82;8.85;;;17.40;86.50;;;;;;10519653;28;20442;-23
2023/11/30 11:55:00;;;;;;;19.42;8.82;;;17.30;87.80;;;;;;10513228;28;20059;-23
2023/11/30 12:00:02;;;;;;;13.85;7.50;;;17.40;87.80;;;;;;10516579;28;20055;-23
2023/11/30 12:05:10;;;;;;;15.60;7.57;;;17.40;87.50;;;;;;10509525;28;20055;-23
2023/11/30 12:10:12;;;;;;;13.05;8.10;;;17.40;87.50;;;;;;10513572;28;20146;-22
2023/11/30 12:15:14;;;;;;;13.15;6.40;;;17.50;87.20;;;;;;10512602;28;20051;-23
2023/11/30 12:20:18;;;;;;;14.50;6.60;;;17.60;86.40;;;;;;10512511;28;20564;-22
2023/11/30 12:25:20;;;;;;;13.48;6.20;;;17.80;85.60;;;;;;10509834;28;20063;-23
2023/11/30 12:30:23;;;;;;;8.43;5.10;;;17.80;85.30;;;;;;10507002;28;20079;-22
2023/11/30 12:35:26;;;;;;;8.65;5.13;;;17.90;84.80;;;;;;10515912;28;20501;-23
2023/11/30 12:40:28;;;;;;;10.82;5.00;;;18.00;84.10;;;;;;10515503;28;20056;-22
2023/11/30 12:45:30;;;;;;;7.27;4.37;;;18.00;83.70;;;;;;10521547;28;20055;-23
2023/11/30 12:50:33;;;;;;;8.00;4.50;;;18.10;83.20;;;;;;10517076;28;20469;-23
2023/11/30 12:55:35;;;;;;;8.15;3.80;;;18.10;83.10;;;;;;10510525;28;20806;-23
2023/11/30 13:00:37;;;;;;;8.50;3.97;;;18.10;82.60;;;;;;10513671;28;20078;-23
2023/11/30 13:05:40;;;;;;;5.05;3.20;;;18.00;82.50;;;;;;10512526;28;20465;-22
2023/11/30 17:24:09;;;;;;;2.30;1.15;;;17.20;85.70;;;;;;10564950;27;21662;-64
2023/11/30 17:29:10;;;;;;;3.40;1.60;;;17.20;86.10;;;;;;10569295;27;20054;-65
2023/11/30 17:34:13;;;;;;;4.83;2.50;;;17.20;86.30;;;;;;10572762;27;20805;-65
2023/11/30 17:39:16;;;;;;;7.18;2.65;;;17.20;86.40;;;;;;10573701;27;20862;-65
2023/11/30 17:44:18;;;;;;;7.68;2.80;;;17.20;86.50;;;;;;10577363;27;20063;-64
2023/11/30 17:49:22;;;;;;;5.72;2.42;;;17.10;86.60;;;;;;10578669;27;20146;-65
2023/11/30 17:54:26;;;;;;;2.88;1.75;;;17.10;86.70;;;;;;10567055;27;20055;-66
2023/11/30 17:59:28;;;;;;;4.25;1.60;;;17.10;86.80;;;;;;10573778;27;20075;-66
2023/11/30 18:04:30;;;;;;;5.78;2.72;;;17.10;87.20;;;;;;10570972;27;20078;-67
2023/11/30 18:09:33;;;;;;;5.63;2.53;;;17.10;87.40;;;;;;10580327;27;20047;-66
2023/11/30 18:14:37;;;;;;;9.63;2.92;;;17.10;87.80;;;;;;10572998;27;20047;-67
2023/11/30 18:19:39;;;;;;;6.93;2.78;;;17.10;87.80;;;;;;10559818;27;20062;-67
2023/11/30 18:24:43;;;;;;;5.88;2.63;;;17.10;87.90;;;;;;10565146;27;20055;-66
2023/11/30 18:29:45;;;;;;;7.82;2.95;;;17.00;88.10;;;;;;10568289;27;20443;-66
2023/11/30 18:34:47;;;;;;;3.83;2.00;;;17.00;88.20;;;;;;10552219;27;20619;-66
2023/11/30 18:39:51;;;;;;;7.05;2.90;;;17.00;88.40;;;;;;10547465;27;20564;-64
2023/11/30 18:44:53;;;;;;;7.88;2.53;;;17.00;88.40;;;;;;10549298;27;20058;-63
2023/11/30 18:49:55;;;;;;;5.35;1.92;;;17.00;88.50;;;;;;10552055;27;20091;-64
2023/11/30 18:54:59;;;;;;;3.53;1.93;;;17.00;88.70;;;;;;10539380;27;20051;-65
2023/11/30 19:00:01;;;;;;;3.45;2.30;;;17.00;88.80;;;;;;10546717;27;21017;-64
2023/11/30 19:05:06;;;;;;;5.83;2.27;;;17.00;88.90;;;;;;10543100;27;20047;-65
2023/11/30 19:10:12;;;;;;;5.32;1.95;;;17.00;89.00;;;;;;10551491;27;20040;-64
2023/11/30 19:15:14;;;;;;;3.55;2.00;;;16.90;89.00;;;;;;10550023;27;20078;-65
2023/11/30 19:20:17;;;;;;;4.65;2.35;;;16.90;89.00;;;;;;10549796;27;20944;-63
2023/11/30 19:25:20;;;;;;;5.25;2.75;;;16.90;89.20;;;;;;10539265;27;20051;-60
2023/11/30 19:30:23;;;;;;;3.30;2.25;;;16.90;89.20;;;;;;10550562;27;20093;-66
2023/11/30 19:35:25;;;;;;;3.85;2.38;;;16.90;89.30;;;;;;10551569;27;20115;-64
2023/11/30 19:40:29;;;;;;;6.32;2.85;;;16.90;89.30;;;;;;10557215;27;20063;-59
2023/11/30 19:45:31;;;;;;;5.20;2.90;;;16.90;89.20;;;;;;10538139;27;20083;-60
2023/11/30 19:50:34;;;;;;;4.97;2.90;;;16.90;89.40;;;;;;10519575;27;20040;-62
2023/11/30 19:55:38;;;;;;;9.55;2.63;;;16.90;89.30;;;;;;10498471;28;20055;-60
2023/11/30 20:00:40;;;;;;;5.03;2.55;;;16.90;89.40;;;;;;10504499;28;20821;-64
2023/11/30 20:05:43;;;;;;;6.85;2.70;;;16.90;89.40;;;;;;10509121;28;20504;-64
2023/11/30 20:10:46;;;;;;;10.55;2.75;;;16.90;89.40;;;;;;10508622;28;20104;-62
2023/11/30 20:15:48;;;;;;;7.60;3.17;;;16.90;89.40;;;;;;10502068;28;20136;-64
2023/11/30 20:20:51;;;;;;;7.13;3.00;;;16.90;89.50;;;;;;10495681;28;20052;-63
2023/11/30 20:25:55;;;;;;;6.00;2.90;;;16.90;89.60;;;;;;10504392;28;20151;-63
2023/11/30 20:30:57;;;;;;;8.80;4.20;;;16.80;89.40;;;;;;10505922;28;20051;-64
2023/11/30 20:35:59;;;;;;;10.27;3.43;;;16.80;89.40;;;;;;10504144;28;20475;-64
2023/11/30 20:41:03;;;;;;;7.22;3.08;;;16.80;89.30;;;;;;10508612;28;20843;-63
2023/11/30 20:46:05;;;;;;;13.85;3.40;;;16.80;89.20;;;;;;10507311;28;21210;-64
2023/11/30 20:51:08;;;;;;;9.85;3.03;;;16.80;89.20;;;;;;10504395;28;20059;-64
2023/11/30 20:56:13;;;;;;;8.65;3.20;;;16.80;89.10;;;;;;10506560;28;20585;-64
2023/11/30 21:01:15;;;;;;;8.10;2.95;;;16.80;89.00;;;;;;10503371;28;20052;-63
2023/11/30 21:06:18;;;;;;;10.00;3.47;;;16.70;89.00;;;;;;10506441;28;20055;-64
2023/11/30 21:11:24;;;;;;;;;;;16.80;89.00;;;;;;10494763;28;20049;-64
2023/11/30 21:16:26;;;;;;;8.20;3.08;;;16.80;89.00;;;;;;10502729;28;19984;-63
2023/11/30 21:21:28;;;;;;;8.97;3.77;;;16.70;88.90;;;;;;10502700;28;20052;-63
2023/11/30 21:26:32;;;;;;;8.63;3.50;;;16.70;89.40;;;;;;10494322;28;20595;-63
2023/11/30 21:31:34;;;;;;;10.52;4.22;;;16.70;88.80;;;;;;10501084;28;20142;-63
2023/11/30 21:36:41;;;;;;;8.60;3.15;;;16.70;88.70;;;;;;10501151;28;20059;-64
2023/11/30 21:41:45;;;;;;;13.65;3.78;;;16.70;88.70;;;;;;10501467;28;20063;-63
2023/11/30 21:46:46;;;;;;;10.05;3.50;;;16.70;88.60;;;;;;10511058;28;20052;-63
2023/11/30 21:51:48;;;;;;;9.10;3.20;;;16.60;88.60;;;;;;10503020;28;20132;-65
2023/11/30 21:56:52;;;;;;;8.10;3.53;;;16.60;88.50;;;;;;10501345;28;20059;-64
2023/11/30 22:01:54;;;;;;;6.13;2.92;;;16.60;88.50;;;;;;10515016;28;20050;-64
2023/11/30 22:06:56;;;;;;;6.20;3.00;;;16.60;88.50;;;;;;10512894;28;20177;-63
2023/11/30 22:12:03;;;;;;;11.27;3.53;;;16.60;88.50;;;;;;10516185;28;20403;-61
2023/11/30 22:17:05;;;;;;;5.85;3.20;;;16.60;88.50;;;;;;10522166;28;20864;-63
2023/11/30 22:22:06;;;;;;;5.87;3.30;;;16.60;88.40;;;;;;10528353;28;20063;-63
2023/11/30 22:27:10;;;;;;;7.97;2.77;;;16.60;88.40;;;;;;10522276;28;20540;-64
2023/11/30 22:32:12;;;;;;;8.68;2.90;;;16.60;88.40;;;;;;10513729;28;20055;-62
2023/11/30 22:37:14;;;;;;;6.30;2.53;;;16.60;88.30;;;;;;10525285;28;20081;-62
2023/11/30 22:42:17;;;;;;;5.55;2.38;;;16.50;88.30;;;;;;10520290;28;20083;-64
2023/11/30 22:47:19;;;;;;;5.55;2.80;;;16.50;88.20;;;;;;10503746;28;20064;-63
2023/11/30 22:52:25;;;;;;;8.43;3.20;;;16.50;88.20;;;;;;10512473;28;20044;-64
2023/11/30 22:57:28;;;;;;;7.88;2.67;;;16.50;88.10;;;;;;10508635;28;20056;-63
2023/11/30 23:02:30;;;;;;;5.47;2.42;;;16.50;88.10;;;;;;10503855;28;20775;-63
2023/11/30 23:07:32;;;;;;;3.70;2.43;;;16.50;88.00;;;;;;10509665;28;20060;-63
2023/11/30 23:12:35;;;;;;;8.60;2.63;;;16.50;87.90;;;;;;10503864;28;20134;-64
2023/11/30 23:17:37;;;;;;;4.35;2.35;;;16.50;87.90;;;;;;10506259;28;20051;-64
2023/11/30 23:22:39;;;;;;;3.80;2.30;;;16.50;87.80;;;;;;10505551;28;20110;-64
2023/11/30 23:27:42;;;;;;;3.47;1.93;;;16.50;87.80;;;;;;10505911;28;20071;-62
2023/11/30 23:32:45;;;;;;;6.20;2.53;;;16.40;87.70;;;;;;10501386;28;20040;-63
2023/11/30 23:37:48;;;;;;;4.68;2.03;;;16.50;87.80;;;;;;10504025;28;20871;-62
2023/11/30 23:42:52;;;;;;;7.10;2.75;;;16.40;87.60;;;;;;10510045;28;20052;-63
2023/11/30 23:47:54;;;;;;;5.00;2.40;;;16.40;87.60;;;;;;10498097;28;20049;-63
2023/11/30 23:52:57;;;;;;;4.80;2.23;;;16.40;87.60;;;;;;10503971;28;20517;-63
2023/11/30 23:58:00;;;;;;;8.80;2.70;;;16.40;87.50;;;;;;10503823;28;20648;-63
